createdAt,value
2019-01-02T08:06:48.743Z,1.70
2019-01-02T08:09:31.475Z,1.80
2019-01-02T08:12:13.527Z,1.80
2019-01-02T08:14:54.776Z,1.90
2019-01-02T08:17:35.611Z,1.90
2019-01-02T08:20:16.112Z,2.00
2019-01-02T08:22:56.587Z,1.90
2019-01-02T08:25:37.023Z,2.00
2019-01-02T08:28:17.459Z,1.90
2019-01-02T08:30:58.968Z,2.00
2019-01-02T08:33:39.703Z,2.00
2019-01-02T08:39:05.588Z,2.10
2019-01-02T08:41:47.005Z,2.10
2019-01-02T08:47:13.883Z,2.10
2019-01-02T08:49:55.116Z,2.10
2019-01-02T08:52:36.176Z,2.20
2019-01-02T08:57:56.832Z,2.30
2019-01-02T09:03:24.087Z,2.30
2019-01-02T09:06:04.875Z,2.30
2019-01-02T09:08:45.694Z,2.20
2019-01-02T09:11:27.117Z,2.10
2019-01-02T09:14:07.875Z,2.10
2019-01-02T09:19:33.924Z,2.20
2019-01-02T09:22:15.134Z,2.30
2019-01-02T09:24:55.920Z,2.50
2019-01-02T09:27:37.001Z,2.60
2019-01-02T09:32:57.465Z,2.70
2019-01-02T09:35:38.073Z,2.70
2019-01-02T09:38:19.449Z,2.80
2019-01-02T09:43:46.063Z,2.90
2019-01-02T09:49:13.381Z,3.00
2019-01-02T09:51:54.747Z,2.90
2019-01-02T09:54:35.519Z,2.90
2019-01-02T10:00:02.491Z,2.90
2019-01-02T10:05:29.514Z,2.80
2019-01-02T10:10:56.499Z,2.70
2019-01-02T10:13:37.920Z,2.80
2019-01-02T10:16:18.683Z,2.80
2019-01-02T10:21:45.470Z,2.70
2019-01-02T10:24:26.520Z,2.70
2019-01-02T10:29:53.706Z,2.70
2019-01-02T10:35:14.062Z,2.60
2019-01-02T10:40:39.948Z,2.60
2019-01-02T10:43:20.399Z,2.60
2019-01-02T10:46:01.626Z,2.60
2019-01-02T10:48:43.075Z,2.60
2019-01-02T10:51:24.033Z,2.60
2019-01-02T10:56:49.965Z,2.70
2019-01-02T10:59:30.471Z,2.60
2019-01-02T11:02:11.611Z,2.60
2019-01-02T11:07:37.409Z,2.50
2019-01-02T11:10:18.439Z,2.30
2019-01-02T11:12:59.330Z,2.30
2019-01-02T11:18:25.743Z,2.10
2019-01-02T11:21:06.981Z,2.10
2019-01-02T11:23:48.038Z,2.10
2019-01-02T11:26:28.623Z,2.20
2019-01-02T11:31:55.195Z,2.10
2019-01-02T11:37:21.679Z,2.00
2019-01-02T11:42:48.575Z,2.00
2019-01-02T11:45:29.639Z,2.00
2019-01-02T11:48:11.053Z,2.10
2019-01-02T11:53:37.923Z,2.30
2019-01-02T11:56:19.309Z,2.40
2019-01-02T11:59:00.244Z,2.30
2019-01-02T12:01:41.586Z,2.30
2019-01-02T12:04:22.432Z,2.20
2019-01-02T12:07:03.881Z,2.20
2019-01-02T12:09:44.755Z,2.30
2019-01-02T12:12:25.255Z,2.20
2019-01-02T12:15:06.137Z,2.30
2019-01-02T12:17:46.687Z,2.20
2019-01-02T12:20:27.506Z,2.20
2019-01-02T12:23:08.276Z,2.10
2019-01-02T12:25:48.707Z,2.10
2019-01-02T12:28:30.080Z,2.20
2019-01-02T12:33:56.015Z,2.50
2019-01-02T12:36:36.482Z,2.60
2019-01-02T12:39:17.579Z,2.50
2019-01-02T12:44:43.500Z,2.30
2019-01-02T12:47:23.935Z,2.20
2019-01-02T12:50:05.097Z,2.20
2019-01-02T12:52:46.519Z,2.20
2019-01-02T12:55:27.379Z,2.20
2019-01-02T12:58:08.167Z,2.30
2019-01-02T13:00:52.156Z,2.30
2019-01-02T13:03:32.623Z,2.40
2019-01-02T13:06:13.913Z,2.50
2019-01-02T13:08:55.397Z,2.50
2019-01-02T13:11:36.283Z,2.50
2019-01-02T13:17:03.322Z,2.50
2019-01-02T13:19:44.263Z,2.50
2019-01-02T13:22:25.312Z,2.40
2019-01-02T13:25:05.826Z,2.50
2019-01-02T13:27:46.283Z,2.50
2019-01-02T13:30:27.645Z,2.50
2019-01-02T13:33:08.095Z,2.50
2019-01-02T13:35:49.103Z,2.50
2019-01-02T13:38:29.567Z,2.50
2019-01-02T13:41:10.967Z,2.40
2019-01-02T13:46:38.012Z,2.30
2019-01-02T13:49:18.933Z,2.20
2019-01-02T13:51:59.811Z,2.20
2019-01-02T13:54:40.382Z,2.10
2019-01-02T13:57:21.099Z,2.00
2019-01-02T14:00:02.471Z,2.00
2019-01-02T14:02:43.546Z,1.90
2019-01-02T14:08:10.243Z,1.70
2019-01-02T14:13:36.415Z,1.70
2019-01-02T14:16:16.898Z,1.60
2019-01-02T14:18:58.075Z,1.60
2019-01-02T14:21:39.429Z,1.50
2019-01-02T14:24:20.192Z,1.50
2019-01-02T14:27:01.612Z,1.50
2019-01-02T14:29:42.149Z,1.30
2019-01-02T14:32:23.208Z,1.30
2019-01-02T14:37:48.979Z,1.20
2019-01-02T14:40:29.539Z,1.10
2019-01-02T14:43:10.968Z,1.00
2019-01-02T14:48:37.585Z,0.90
2019-01-02T14:54:04.090Z,0.80
2019-01-02T14:56:45.435Z,0.90
2019-01-02T14:59:26.048Z,0.90
2019-01-02T15:02:07.388Z,0.90
2019-01-02T15:04:48.570Z,0.90
2019-01-02T15:07:29.997Z,0.80
2019-01-02T15:10:10.791Z,0.80
2019-01-02T15:15:36.580Z,0.90
2019-01-02T15:18:18.248Z,0.90
2019-01-02T15:23:44.843Z,1.00
2019-01-02T15:29:05.592Z,1.00
2019-01-02T15:34:25.891Z,1.20
2019-01-02T15:39:46.386Z,1.20
2019-01-02T15:42:27.735Z,1.20
2019-01-02T15:45:08.615Z,1.00
2019-01-02T15:50:35.639Z,0.70
2019-01-02T15:56:01.493Z,0.40
2019-01-02T15:58:42.035Z,0.30
2019-01-02T16:01:23.301Z,0.20
2019-01-02T16:04:05.690Z,0.10
2019-01-02T16:06:46.336Z,0.00
2019-01-02T16:12:13.384Z,0.20
2019-01-02T16:14:54.257Z,0.30
2019-01-02T16:20:21.708Z,0.20
2019-01-02T16:25:42.159Z,0.30
2019-01-02T16:31:09.344Z,0.40
2019-01-02T16:36:35.964Z,0.40
2019-01-02T16:42:02.501Z,0.40
2019-01-02T16:47:22.924Z,0.40
2019-01-02T16:52:50.148Z,0.40
2019-01-02T16:58:17.439Z,0.30
2019-01-02T17:03:44.277Z,0.50
2019-01-02T17:06:25.713Z,0.40
2019-01-02T17:09:07.711Z,0.40
2019-01-02T17:11:48.419Z,0.40
2019-01-02T17:14:28.929Z,0.40
2019-01-02T17:17:09.795Z,0.40
2019-01-02T17:22:33.236Z,0.40
2019-01-02T17:25:14.668Z,0.30
2019-01-02T17:27:55.472Z,0.30
2019-01-02T17:30:36.623Z,0.20
2019-01-02T17:33:18.286Z,0.20
2019-01-02T17:35:59.625Z,0.10
2019-01-02T17:38:40.525Z,0.00
2019-01-02T17:41:22.040Z,0.00
2019-01-02T17:44:02.588Z,0.00
2019-01-02T17:46:43.341Z,0.10
2019-01-02T17:49:24.152Z,-0.10
2019-01-02T17:52:05.195Z,-0.20
2019-01-02T17:54:46.717Z,-0.30
2019-01-02T17:57:27.344Z,-0.20
2019-01-02T18:00:07.868Z,-0.20
2019-01-02T18:02:48.937Z,-0.20
2019-01-02T18:08:15.932Z,-0.20
2019-01-02T18:13:43.208Z,-0.20
2019-01-02T18:16:23.607Z,-0.10
2019-01-02T18:19:04.232Z,-0.10
2019-01-02T18:21:46.163Z,-0.10
2019-01-02T18:24:27.436Z,-0.20
2019-01-02T18:27:09.740Z,-0.20
2019-01-02T18:29:50.467Z,-0.20
2019-01-02T18:35:10.876Z,-0.20
2019-01-02T18:40:39.547Z,-0.30
2019-01-02T18:43:20.463Z,-0.30
2019-01-02T18:46:01.869Z,-0.30
2019-01-02T18:48:42.493Z,-0.30
2019-01-02T18:51:22.951Z,-0.30
2019-01-02T18:54:03.596Z,-0.20
2019-01-02T18:56:44.950Z,-0.30
2019-01-02T18:59:25.992Z,-0.30
2019-01-02T19:04:46.407Z,-0.40
2019-01-02T19:07:26.943Z,-0.30
2019-01-02T19:10:08.331Z,-0.30
2019-01-02T19:15:34.852Z,-0.30
2019-01-02T19:18:16.236Z,-0.20
2019-01-02T19:20:56.968Z,-0.20
2019-01-02T19:26:24.091Z,-0.20
2019-01-02T19:29:05.256Z,-0.10
2019-01-02T19:31:45.794Z,-0.10
2019-01-02T19:34:27.187Z,-0.10
2019-01-02T19:37:07.791Z,-0.10
2019-01-02T19:39:48.983Z,-0.20
2019-01-02T19:45:15.233Z,-0.30
2019-01-02T19:50:42.463Z,-0.40
2019-01-02T19:56:08.331Z,-0.60
2019-01-02T19:58:49.130Z,-0.60
2019-01-02T20:01:30.503Z,-0.70
2019-01-02T20:06:57.508Z,-0.70
2019-01-02T20:09:38.859Z,-0.70
2019-01-02T20:12:19.688Z,-0.80
2019-01-02T20:17:40.167Z,-0.80
2019-01-02T20:20:21.578Z,-0.80
2019-01-02T20:23:02.336Z,-0.70
2019-01-02T20:28:29.181Z,-0.70
2019-01-02T20:31:09.724Z,-0.70
2019-01-02T20:33:50.903Z,-0.60
2019-01-02T20:36:31.585Z,-0.70
2019-01-02T20:41:52.046Z,-0.70
2019-01-02T20:44:33.435Z,-0.80
2019-01-02T20:47:14.187Z,-0.70
2019-01-02T20:49:55.593Z,-0.70
2019-01-02T20:52:36.300Z,-0.70
